createdAt,value
2023-01-22T00:01:53.123Z,-0.83
2023-01-22T00:05:56.089Z,-0.85
2023-01-22T00:10:00.086Z,-0.88
2023-01-22T00:14:03.258Z,-0.76
2023-01-22T00:18:07.612Z,-0.76
2023-01-22T00:22:12.299Z,-0.78
2023-01-22T00:26:17.318Z,-0.79
2023-01-22T00:30:21.871Z,-0.78
2023-01-22T00:34:26.243Z,-0.77
2023-01-22T00:38:29.287Z,-0.74
2023-01-22T00:42:32.480Z,-0.73
2023-01-22T00:46:35.570Z,-0.71
2023-01-22T00:50:39.943Z,-0.64
2023-01-22T00:54:42.935Z,-0.55
2023-01-22T00:58:45.934Z,-0.48
2023-01-22T01:03:06.512Z,-0.40
2023-01-22T01:07:10.989Z,-0.39
2023-01-22T01:11:16.212Z,-0.34
2023-01-22T01:15:19.441Z,-0.28
2023-01-22T01:19:22.506Z,-0.18
2023-01-22T01:23:29.589Z,-0.18
2023-01-22T01:27:32.864Z,-0.13
2023-01-22T01:31:35.917Z,-0.07
2023-01-22T01:35:38.968Z,-0.08
2023-01-22T01:39:43.335Z,-0.04
2023-01-22T01:43:46.349Z,0.01
2023-01-22T01:47:51.662Z,0.00
2023-01-22T01:51:57.706Z,0.01
2023-01-22T01:56:04.365Z,0.04
2023-01-22T02:00:11.321Z,0.02
2023-01-22T02:04:17.714Z,0.06
2023-01-22T02:08:20.739Z,0.08
2023-01-22T02:12:25.093Z,0.10
2023-01-22T02:16:28.331Z,0.09
2023-01-22T02:20:36.540Z,0.09
2023-01-22T02:24:39.509Z,0.11
2023-01-22T02:28:44.016Z,0.08
2023-01-22T02:32:47.207Z,0.07
2023-01-22T02:36:52.286Z,0.02
2023-01-22T02:40:55.574Z,0.05
2023-01-22T02:44:58.709Z,0.01
2023-01-22T02:49:02.815Z,0.03
2023-01-22T02:53:09.555Z,0.03
2023-01-22T02:57:12.996Z,0.04
2023-01-22T03:01:22.361Z,0.01
2023-01-22T03:05:27.880Z,0.01
2023-01-22T03:09:32.283Z,-0.00
2023-01-22T03:13:52.989Z,-0.01
2023-01-22T03:18:13.676Z,-0.01
2023-01-22T03:22:17.397Z,0.02
2023-01-22T03:26:23.517Z,0.01
2023-01-22T03:30:26.600Z,-0.01
2023-01-22T03:34:39.104Z,-0.01
2023-01-22T03:38:42.389Z,0.02
2023-01-22T03:42:51.249Z,-0.01
2023-01-22T03:46:54.388Z,0.03
2023-01-22T03:50:58.321Z,-0.01
2023-01-22T03:55:01.481Z,-0.01
2023-01-22T03:59:06.186Z,-0.04
2023-01-22T04:03:09.975Z,-0.02
2023-01-22T04:07:15.459Z,-0.04
2023-01-22T04:11:19.516Z,-0.05
2023-01-22T04:15:23.937Z,-0.05
2023-01-22T04:19:29.362Z,-0.09
2023-01-22T04:23:52.632Z,-0.10
2023-01-22T04:27:56.219Z,-0.09
2023-01-22T04:32:00.656Z,-0.12
2023-01-22T04:36:22.144Z,-0.15
2023-01-22T04:40:26.531Z,-0.17
2023-01-22T04:44:30.740Z,-0.20
2023-01-22T04:48:35.278Z,-0.16
2023-01-22T04:52:38.623Z,-0.15
2023-01-22T04:56:41.907Z,-0.15
2023-01-22T05:00:45.003Z,-0.13
2023-01-22T05:04:52.511Z,-0.11
2023-01-22T05:08:56.126Z,-0.12
2023-01-22T05:13:03.959Z,-0.12
2023-01-22T05:17:07.381Z,-0.13
2023-01-22T05:21:11.792Z,-0.12
2023-01-22T05:25:15.127Z,-0.09
2023-01-22T05:29:18.801Z,-0.12
2023-01-22T05:33:34.522Z,-0.12
2023-01-22T05:37:40.236Z,-0.10
2023-01-22T05:41:44.153Z,-0.07
2023-01-22T05:45:48.287Z,-0.05
2023-01-22T05:50:18.285Z,-0.11
2023-01-22T05:54:23.777Z,-0.06
2023-01-22T05:58:28.908Z,-0.08
2023-01-22T06:02:32.330Z,-0.08
2023-01-22T06:06:35.552Z,-0.08
2023-01-22T06:10:40.211Z,-0.09
2023-01-22T06:14:43.282Z,-0.07
2023-01-22T06:18:47.949Z,-0.03
2023-01-22T06:22:52.869Z,-0.03
2023-01-22T06:26:57.779Z,-0.04
2023-01-22T06:31:09.153Z,-0.05
2023-01-22T06:35:13.426Z,-0.04
2023-01-22T06:39:17.128Z,0.02
2023-01-22T06:43:33.503Z,-0.05
2023-01-22T06:47:36.589Z,-0.03
2023-01-22T06:51:39.654Z,-0.07
2023-01-22T06:55:42.721Z,-0.07
2023-01-22T06:59:47.124Z,-0.07
2023-01-22T07:03:50.172Z,-0.05
2023-01-22T07:07:55.162Z,0.00
2023-01-22T07:12:01.081Z,-0.01
2023-01-22T07:16:06.412Z,0.00
2023-01-22T07:20:10.979Z,0.05
2023-01-22T07:24:14.405Z,0.05
2023-01-22T07:28:17.424Z,0.07
2023-01-22T07:32:21.769Z,0.08
2023-01-22T07:36:24.811Z,0.10
2023-01-22T07:40:28.217Z,0.09
2023-01-22T07:44:31.399Z,0.08
2023-01-22T07:48:36.041Z,0.08
2023-01-22T07:52:38.984Z,0.10
2023-01-22T07:56:41.999Z,0.09
2023-01-22T08:00:45.073Z,0.09
2023-01-22T08:04:49.431Z,0.12
2023-01-22T08:08:52.541Z,0.04
2023-01-22T08:12:55.551Z,0.11
2023-01-22T08:16:58.547Z,0.09
2023-01-22T08:21:03.098Z,0.09
2023-01-22T08:25:06.964Z,0.14
2023-01-22T08:29:09.967Z,0.12
2023-01-22T08:33:13.077Z,0.16
2023-01-22T08:37:17.437Z,0.16
2023-01-22T08:41:20.490Z,0.14
2023-01-22T08:45:24.172Z,0.15
2023-01-22T08:49:27.228Z,0.17
2023-01-22T08:53:31.711Z,0.13
2023-01-22T08:57:34.740Z,0.20
2023-01-22T09:01:37.872Z,0.16
2023-01-22T09:05:41.445Z,0.22
2023-01-22T09:09:45.976Z,0.25
2023-01-22T09:13:49.347Z,0.27
2023-01-22T09:17:52.548Z,0.29
2023-01-22T09:21:55.550Z,0.25
2023-01-22T09:26:00.129Z,0.28
2023-01-22T09:30:03.575Z,0.42
2023-01-22T09:34:07.477Z,0.37
2023-01-22T09:38:14.299Z,0.39
2023-01-22T09:42:24.066Z,0.43
2023-01-22T09:46:30.828Z,0.54
2023-01-22T09:50:35.660Z,0.57
2023-01-22T09:54:38.753Z,0.58
2023-01-22T09:58:43.327Z,0.54
2023-01-22T10:02:49.996Z,0.62
2023-01-22T10:06:56.395Z,0.59
2023-01-22T10:11:01.078Z,0.58
2023-01-22T10:15:06.255Z,0.65
2023-01-22T10:19:18.759Z,0.67
2023-01-22T10:23:24.197Z,0.65
2023-01-22T10:27:36.345Z,0.85
2023-01-22T10:31:47.671Z,0.92
2023-01-22T10:35:53.451Z,0.78
2023-01-22T10:39:59.780Z,0.80
2023-01-22T10:44:20.549Z,0.78
2023-01-22T10:48:24.999Z,0.78
2023-01-22T10:52:35.915Z,0.77
2023-01-22T10:56:41.373Z,0.66
2023-01-22T11:00:51.818Z,0.74
2023-01-22T11:04:57.008Z,0.91
2023-01-22T11:09:13.327Z,0.94
2023-01-22T11:13:21.070Z,0.98
2023-01-22T11:17:30.639Z,0.84
2023-01-22T11:21:37.084Z,1.02
2023-01-22T11:25:46.703Z,0.92
2023-01-22T11:30:03.855Z,1.13
2023-01-22T11:34:39.209Z,1.16
2023-01-22T11:38:51.308Z,1.01
2023-01-22T11:43:18.293Z,1.20
2023-01-22T11:47:40.084Z,1.14
2023-01-22T11:51:56.389Z,1.07
2023-01-22T11:56:25.440Z,1.08
2023-01-22T12:00:43.025Z,1.04
2023-01-22T12:05:09.450Z,0.92
2023-01-22T12:09:22.949Z,0.95
2023-01-22T12:13:43.100Z,0.94
2023-01-22T12:17:58.557Z,1.00
2023-01-22T12:22:08.517Z,1.09
2023-01-22T12:26:18.391Z,0.95
2023-01-22T12:30:26.623Z,0.88
2023-01-22T12:34:35.318Z,0.72
2023-01-22T12:38:43.868Z,0.88
2023-01-22T12:42:54.178Z,0.93
2023-01-22T12:47:06.149Z,0.83
2023-01-22T12:51:26.320Z,0.91
2023-01-22T12:55:32.732Z,0.92
2023-01-22T12:59:45.711Z,0.84
2023-01-22T13:03:59.255Z,1.01
2023-01-22T13:08:05.553Z,0.94
2023-01-22T13:12:09.900Z,0.94
2023-01-22T13:16:23.095Z,0.88
2023-01-22T13:20:27.794Z,0.93
2023-01-22T13:24:30.809Z,0.96
2023-01-22T13:28:34.773Z,0.95
2023-01-22T13:32:37.842Z,1.07
2023-01-22T13:36:47.147Z,1.13
2023-01-22T13:40:51.836Z,1.03
2023-01-22T13:44:57.367Z,0.98
2023-01-22T13:49:03.000Z,1.08
2023-01-22T13:53:07.718Z,1.13
2023-01-22T13:57:13.632Z,1.12
2023-01-22T14:01:28.850Z,0.99
2023-01-22T14:05:34.883Z,1.21
2023-01-22T14:09:40.567Z,1.05
2023-01-22T14:13:44.787Z,1.06
2023-01-22T14:17:50.437Z,1.01
2023-01-22T14:21:53.843Z,1.02
2023-01-22T14:25:59.044Z,1.00
2023-01-22T14:30:02.276Z,1.01
2023-01-22T14:34:05.438Z,1.07
2023-01-22T14:38:08.748Z,1.14
2023-01-22T14:42:13.224Z,0.97
2023-01-22T14:46:16.280Z,1.09
2023-01-22T14:50:20.760Z,0.99
2023-01-22T14:54:25.324Z,1.02
2023-01-22T14:58:29.704Z,1.02
2023-01-22T15:02:33.221Z,1.14
2023-01-22T15:06:36.403Z,1.03
2023-01-22T15:10:39.581Z,0.99
2023-01-22T15:14:44.132Z,1.03
2023-01-22T15:18:47.235Z,1.01
2023-01-22T15:22:50.975Z,0.99
2023-01-22T15:26:54.003Z,1.00
2023-01-22T15:31:07.647Z,1.04
2023-01-22T15:35:11.617Z,1.02
2023-01-22T15:39:14.628Z,1.07
2023-01-22T15:43:17.664Z,1.01
2023-01-22T15:47:22.042Z,1.00
2023-01-22T15:51:25.669Z,1.00
2023-01-22T15:55:28.745Z,0.99
2023-01-22T15:59:32.135Z,0.97
2023-01-22T16:03:37.380Z,0.98
2023-01-22T16:07:41.338Z,1.00
2023-01-22T16:11:45.439Z,0.98
2023-01-22T16:15:58.993Z,1.01
2023-01-22T16:20:05.865Z,1.02
2023-01-22T16:24:11.982Z,0.98
2023-01-22T16:28:16.402Z,0.99
2023-01-22T16:32:20.766Z,0.99
2023-01-22T16:36:29.539Z,1.00
2023-01-22T16:40:34.628Z,0.98
2023-01-22T16:44:38.777Z,0.99
2023-01-22T16:48:42.713Z,1.00
2023-01-22T16:52:48.987Z,1.05
2023-01-22T16:56:53.839Z,1.01
2023-01-22T17:00:59.035Z,1.00
2023-01-22T17:05:04.111Z,1.00
2023-01-22T17:09:13.544Z,1.01
2023-01-22T17:13:17.615Z,1.02
2023-01-22T17:17:22.214Z,1.01
2023-01-22T17:21:28.924Z,0.99
2023-01-22T17:25:34.952Z,0.98
2023-01-22T17:29:40.280Z,0.96
2023-01-22T17:33:45.345Z,1.04
2023-01-22T17:37:50.002Z,1.00
2023-01-22T17:41:54.698Z,0.95
2023-01-22T17:45:59.261Z,1.04
2023-01-22T17:50:03.835Z,0.98
2023-01-22T17:54:08.017Z,1.00
2023-01-22T17:58:13.372Z,1.01
2023-01-22T18:02:17.568Z,1.00
2023-01-22T18:06:20.986Z,1.04
2023-01-22T18:10:24.931Z,1.02
2023-01-22T18:14:34.314Z,0.99
2023-01-22T18:18:37.862Z,1.01
2023-01-22T18:22:40.901Z,1.02
2023-01-22T18:26:45.217Z,1.09
2023-01-22T18:30:51.475Z,1.03
2023-01-22T18:34:55.976Z,1.09
2023-01-22T18:39:01.654Z,1.06
2023-01-22T18:43:09.504Z,1.09
2023-01-22T18:47:15.694Z,1.07
2023-01-22T18:51:19.054Z,1.04
2023-01-22T18:55:23.367Z,1.01
2023-01-22T18:59:27.139Z,1.15
2023-01-22T19:03:32.302Z,1.10
2023-01-22T19:07:38.276Z,1.16
2023-01-22T19:11:43.621Z,1.11
2023-01-22T19:15:46.752Z,1.09
2023-01-22T19:19:51.435Z,1.12
2023-01-22T19:23:56.929Z,1.11
2023-01-22T19:27:59.995Z,1.17
2023-01-22T19:32:03.166Z,1.14
2023-01-22T19:36:08.675Z,1.12
2023-01-22T19:40:13.521Z,1.11
2023-01-22T19:44:16.777Z,1.14
2023-01-22T19:48:21.285Z,1.16
2023-01-22T19:52:26.738Z,1.12
2023-01-22T19:56:32.093Z,1.15
2023-01-22T20:00:35.434Z,1.13
2023-01-22T20:04:38.560Z,1.12
2023-01-22T20:08:43.395Z,1.11
2023-01-22T20:12:47.115Z,1.11
2023-01-22T20:16:51.086Z,1.18
2023-01-22T20:20:54.782Z,1.09
2023-01-22T20:24:59.299Z,1.06
2023-01-22T20:29:02.335Z,1.12
2023-01-22T20:33:05.481Z,1.07
2023-01-22T20:37:08.579Z,1.09
2023-01-22T20:41:13.963Z,1.10
2023-01-22T20:45:17.304Z,1.15
2023-01-22T20:49:20.580Z,1.18
2023-01-22T20:53:24.038Z,1.12
2023-01-22T20:57:28.487Z,1.16
2023-01-22T21:01:31.989Z,1.22
2023-01-22T21:05:37.938Z,1.23
2023-01-22T21:09:41.088Z,1.24
2023-01-22T21:13:47.181Z,1.26
2023-01-22T21:17:50.306Z,1.29
2023-01-22T21:21:56.296Z,1.28
2023-01-22T21:26:05.099Z,1.33
2023-01-22T21:30:10.994Z,1.26
2023-01-22T21:34:14.066Z,1.24
2023-01-22T21:38:20.095Z,1.20
2023-01-22T21:42:40.457Z,1.24
2023-01-22T21:46:46.627Z,1.27
2023-01-22T21:50:49.711Z,1.27
2023-01-22T21:54:53.145Z,1.24
2023-01-22T21:58:57.014Z,1.35
2023-01-22T22:03:01.405Z,1.38
2023-01-22T22:07:04.571Z,1.38
2023-01-22T22:11:08.120Z,1.29
2023-01-22T22:15:12.166Z,1.31
2023-01-22T22:19:17.925Z,1.32
2023-01-22T22:23:20.930Z,1.27
2023-01-22T22:27:25.452Z,1.33
2023-01-22T22:31:30.185Z,1.33
2023-01-22T22:35:34.597Z,1.39
2023-01-22T22:39:38.929Z,1.35
2023-01-22T22:43:44.217Z,1.33
2023-01-22T22:47:47.230Z,1.41
2023-01-22T22:51:51.681Z,1.31
2023-01-22T22:55:54.733Z,1.29
2023-01-22T22:59:57.745Z,1.25
2023-01-22T23:04:01.528Z,1.27
2023-01-22T23:08:06.887Z,1.25
2023-01-22T23:12:10.024Z,1.27
2023-01-22T23:16:14.777Z,1.27
2023-01-22T23:20:18.354Z,1.27
2023-01-22T23:24:23.408Z,1.29
2023-01-22T23:28:26.480Z,1.28
2023-01-22T23:32:30.665Z,1.30
2023-01-22T23:36:35.131Z,1.27
2023-01-22T23:40:39.478Z,1.26
2023-01-22T23:44:42.710Z,1.25
2023-01-22T23:48:46.260Z,1.23
2023-01-22T23:52:49.372Z,1.25
2023-01-22T23:56:53.791Z,1.21
